sensor_id;sensor_type;location;lat;lon;timestamp;pressure;altitude;pressure_sealevel;temperature;humidity
75936;BME280;64614;32.062;34.834;2023-11-21T00:02:25;101038.09;;;26.32;42.31
75936;BME280;64614;32.062;34.834;2023-11-21T00:04:53;101046.34;;;26.32;42.61
75936;BME280;64614;32.062;34.834;2023-11-21T00:07:19;101049.09;;;26.32;42.31
75936;BME280;64614;32.062;34.834;2023-11-21T00:09:51;101042.47;;;26.33;42.38
75936;BME280;64614;32.062;34.834;2023-11-21T00:12:18;101045.22;;;26.33;42.39
75936;BME280;64614;32.062;34.834;2023-11-21T00:14:44;101046.84;;;26.34;42.46
75936;BME280;64614;32.062;34.834;2023-11-21T00:17:10;101046.53;;;26.35;42.50
75936;BME280;64614;32.062;34.834;2023-11-21T00:19:35;101050.06;;;26.36;42.41
75936;BME280;64614;32.062;34.834;2023-11-21T00:22:03;101042.47;;;26.33;42.70
75936;BME280;64614;32.062;34.834;2023-11-21T00:24:28;101043.44;;;26.37;42.84
75936;BME280;64614;32.062;34.834;2023-11-21T00:26:54;101048.94;;;26.37;42.92
75936;BME280;64614;32.062;34.834;2023-11-21T00:29:20;101039.41;;;26.34;42.79
75936;BME280;64614;32.062;34.834;2023-11-21T00:31:47;101027.25;;;26.26;43.03
75936;BME280;64614;32.062;34.834;2023-11-21T00:34:16;101037.09;;;26.36;43.00
75936;BME280;64614;32.062;34.834;2023-11-21T00:36:45;101038.25;;;26.35;42.86
75936;BME280;64614;32.062;34.834;2023-11-21T00:42:12;101045.84;;;26.38;42.96
75936;BME280;64614;32.062;34.834;2023-11-21T00:44:47;101042.59;;;26.36;42.84
75936;BME280;64614;32.062;34.834;2023-11-21T00:47:13;101043.59;;;26.32;42.58
75936;BME280;64614;32.062;34.834;2023-11-21T00:49:39;101043.59;;;26.32;43.18
75936;BME280;64614;32.062;34.834;2023-11-21T00:52:05;101050.06;;;26.36;42.92
75936;BME280;64614;32.062;34.834;2023-11-21T00:54:32;101048.13;;;26.36;43.05
75936;BME280;64614;32.062;34.834;2023-11-21T00:56:59;101048.44;;;26.35;43.06
75936;BME280;64614;32.062;34.834;2023-11-21T00:59:25;101050.06;;;26.36;42.71
75936;BME280;64614;32.062;34.834;2023-11-21T01:01:58;101047.31;;;26.36;43.16
75936;BME280;64614;32.062;34.834;2023-11-21T01:04:28;101052.81;;;26.36;42.92
75936;BME280;64614;32.062;34.834;2023-11-21T01:07:00;101052.81;;;26.36;42.85
75936;BME280;64614;32.062;34.834;2023-11-21T01:09:25;101046.84;;;26.34;43.31
75936;BME280;64614;32.062;34.834;2023-11-21T01:11:54;101048.44;;;26.35;43.12
75936;BME280;64614;32.062;34.834;2023-11-21T01:14:19;101049.59;;;26.34;42.76
75936;BME280;64614;32.062;34.834;2023-11-21T01:16:47;101046.53;;;26.35;42.87
75936;BME280;64614;32.062;34.834;2023-11-21T01:19:17;101052.81;;;26.36;42.77
75936;BME280;64614;32.062;34.834;2023-11-21T01:21:43;101043.28;;;26.33;43.22
75936;BME280;64614;32.062;34.834;2023-11-21T01:24:09;101050.06;;;26.36;42.77
75936;BME280;64614;32.062;34.834;2023-11-21T01:26:37;101041.31;;;26.34;43.12
75936;BME280;64614;32.062;34.834;2023-11-21T01:29:03;101044.75;;;26.31;42.86
75936;BME280;64614;32.062;34.834;2023-11-21T01:31:28;101049.09;;;26.32;42.97
75936;BME280;64614;32.062;34.834;2023-11-21T01:33:55;101051.22;;;26.35;43.28
75936;BME280;64614;32.062;34.834;2023-11-21T01:36:22;101055.09;;;26.34;43.02
75936;BME280;64614;32.062;34.834;2023-11-21T01:38:49;101045.22;;;26.33;43.52
75936;BME280;64614;32.062;34.834;2023-11-21T01:41:17;101054.78;;;26.35;42.93
75936;BME280;64614;32.062;34.834;2023-11-21T01:43:43;101057.06;;;26.33;42.96
75936;BME280;64614;32.062;34.834;2023-11-21T01:46:12;101059.47;;;26.35;43.29
75936;BME280;64614;32.062;34.834;2023-11-21T01:48:41;101057.53;;;26.35;43.08
75936;BME280;64614;32.062;34.834;2023-11-21T01:51:07;101059.81;;;26.33;43.17
75936;BME280;64614;32.062;34.834;2023-11-21T01:53:34;101057.84;;;26.34;43.12
75936;BME280;64614;32.062;34.834;2023-11-21T01:56:03;101067.72;;;26.43;43.08
75936;BME280;64614;32.062;34.834;2023-11-21T01:58:30;101067.38;;;26.36;43.60
75936;BME280;64614;32.062;34.834;2023-11-21T02:00:58;101064.63;;;26.36;43.50
75936;BME280;64614;32.062;34.834;2023-11-21T02:03:23;101065.81;;;26.35;43.36
75936;BME280;64614;32.062;34.834;2023-11-21T02:05:49;101042.84;;;26.22;43.77
75936;BME280;64614;32.062;34.834;2023-11-21T02:08:26;101049.63;;;26.25;43.34
75936;BME280;64614;32.062;34.834;2023-11-21T02:10:52;101070.97;;;26.37;43.74
75936;BME280;64614;32.062;34.834;2023-11-21T02:16:02;101070.47;;;26.35;43.39
75936;BME280;64614;32.062;34.834;2023-11-21T02:18:32;101063.53;;;26.28;43.85
75936;BME280;64614;32.062;34.834;2023-11-21T02:20:59;101059.50;;;26.26;43.47
75936;BME280;64614;32.062;34.834;2023-11-21T02:23:28;101085.53;;;26.37;43.49
75936;BME280;64614;32.062;34.834;2023-11-21T02:25:55;101081.16;;;26.36;43.65
75936;BME280;64614;32.062;34.834;2023-11-21T02:28:23;101079.22;;;26.37;43.37
75936;BME280;64614;32.062;34.834;2023-11-21T02:30:54;101073.88;;;26.32;43.45
75936;BME280;64614;32.062;34.834;2023-11-21T02:33:42;101093.00;;;26.37;43.98
75936;BME280;64614;32.062;34.834;2023-11-21T02:36:13;101093.63;;;26.34;44.00
75936;BME280;64614;32.062;34.834;2023-11-21T02:38:39;101081.84;;;26.33;44.03
75936;BME280;64614;32.062;34.834;2023-11-21T02:43:39;101085.72;;;26.32;43.92
75936;BME280;64614;32.062;34.834;2023-11-21T02:46:04;101102.38;;;26.36;43.80
75936;BME280;64614;32.062;34.834;2023-11-21T02:48:30;101077.63;;;26.27;43.71
75936;BME280;64614;32.062;34.834;2023-11-21T02:50:56;101095.59;;;26.33;43.65
75936;BME280;64614;32.062;34.834;2023-11-21T02:53:21;101101.25;;;26.37;43.88
75936;BME280;64614;32.062;34.834;2023-11-21T02:55:49;101098.66;;;26.32;43.64
75936;BME280;64614;32.062;34.834;2023-11-21T02:58:16;101105.94;;;26.36;43.83
75936;BME280;64614;32.062;34.834;2023-11-21T03:00:48;101080.56;;;26.22;44.01
75936;BME280;64614;32.062;34.834;2023-11-21T03:03:16;101107.75;;;26.32;44.12
75936;BME280;64614;32.062;34.834;2023-11-21T03:05:42;101118.44;;;26.34;43.69
75936;BME280;64614;32.062;34.834;2023-11-21T03:08:08;101105.97;;;26.27;43.59
75936;BME280;64614;32.062;34.834;2023-11-21T03:10:38;101109.22;;;26.30;43.93
75936;BME280;64614;32.062;34.834;2023-11-21T03:18:48;101141.75;;;26.36;43.63
75936;BME280;64614;32.062;34.834;2023-11-21T03:21:13;101135.75;;;26.43;43.41
75936;BME280;64614;32.062;34.834;2023-11-21T03:23:39;101142.06;;;26.35;43.62
75936;BME280;64614;32.062;34.834;2023-11-21T03:26:05;101147.44;;;26.31;43.70
75936;BME280;64614;32.062;34.834;2023-11-21T03:28:34;101156.31;;;26.28;43.67
75936;BME280;64614;32.062;34.834;2023-11-21T03:30:59;101162.66;;;26.28;43.45
75936;BME280;64614;32.062;34.834;2023-11-21T03:33:25;101179.19;;;26.28;43.18
75936;BME280;64614;32.062;34.834;2023-11-21T03:35:51;101181.09;;;26.28;43.21
75936;BME280;64614;32.062;34.834;2023-11-21T03:38:18;101178.69;;;26.26;43.35
75936;BME280;64614;32.062;34.834;2023-11-21T03:40:44;101189.69;;;26.26;43.55
75936;BME280;64614;32.062;34.834;2023-11-21T03:43:10;101186.94;;;26.26;43.49
75936;BME280;64614;32.062;34.834;2023-11-21T03:45:37;101199.59;;;26.27;43.05
75936;BME280;64614;32.062;34.834;2023-11-21T03:48:03;101198.28;;;26.25;43.41
75936;BME280;64614;32.062;34.834;2023-11-21T03:50:29;101200.22;;;26.24;43.08
75936;BME280;64614;32.062;34.834;2023-11-21T03:52:56;101197.00;;;26.22;43.52
75936;BME280;64614;32.062;34.834;2023-11-21T03:55:22;101208.81;;;26.23;43.36
75936;BME280;64614;32.062;34.834;2023-11-21T03:57:52;101216.75;;;26.24;43.16
75936;BME280;64614;32.062;34.834;2023-11-21T04:02:54;101222.91;;;26.21;43.24
75936;BME280;64614;32.062;34.834;2023-11-21T04:05:24;101230.34;;;26.21;43.18
75936;BME280;64614;32.062;34.834;2023-11-21T04:07:50;101235.34;;;26.19;42.94
75936;BME280;64614;32.062;34.834;2023-11-21T04:10:19;101241.19;;;26.17;43.03
75936;BME280;64614;32.062;34.834;2023-11-21T04:15:12;101248.16;;;26.15;42.83
75936;BME280;64614;32.062;34.834;2023-11-21T04:17:41;101255.28;;;26.16;42.67
75936;BME280;64614;32.062;34.834;2023-11-21T04:20:09;101255.59;;;26.14;42.95
75936;BME280;64614;32.062;34.834;2023-11-21T04:22:41;101265.00;;;26.13;42.81
75936;BME280;64614;32.062;34.834;2023-11-21T04:25:11;101254.00;;;26.13;42.80
75936;BME280;64614;32.062;34.834;2023-11-21T04:27:42;101261.09;;;26.14;43.21
75936;BME280;64614;32.062;34.834;2023-11-21T04:30:11;101259.00;;;26.11;42.76
75936;BME280;64614;32.062;34.834;2023-11-21T04:32:38;101260.94;;;26.10;43.00
75936;BME280;64614;32.062;34.834;2023-11-21T04:35:10;101270.00;;;26.11;43.19
75936;BME280;64614;32.062;34.834;2023-11-21T04:37:38;101272.78;;;26.11;43.17
75936;BME280;64614;32.062;34.834;2023-11-21T04:40:05;101249.84;;;25.93;43.16
75936;BME280;64614;32.062;34.834;2023-11-21T04:42:35;101273.69;;;26.06;42.74
75936;BME280;64614;32.062;34.834;2023-11-21T04:45:05;101281.13;;;26.06;42.70
75936;BME280;64614;32.062;34.834;2023-11-21T04:47:37;101282.91;;;26.02;42.81
75936;BME280;64614;32.062;34.834;2023-11-21T04:50:05;101293.44;;;26.00;42.61
75936;BME280;64614;32.062;34.834;2023-11-21T04:52:31;101306.84;;;26.01;43.14
75936;BME280;64614;32.062;34.834;2023-11-21T04:55:00;101312.56;;;26.05;42.87
75936;BME280;64614;32.062;34.834;2023-11-21T04:57:27;101320.31;;;26.03;42.82
75936;BME280;64614;32.062;34.834;2023-11-21T04:59:55;101319.81;;;26.01;42.71
75936;BME280;64614;32.062;34.834;2023-11-21T05:02:21;101323.19;;;25.97;43.01
75936;BME280;64614;32.062;34.834;2023-11-21T05:04:49;101326.47;;;26.00;42.76
75936;BME280;64614;32.062;34.834;2023-11-21T05:10:04;101329.03;;;25.96;42.28
75936;BME280;64614;32.062;34.834;2023-11-21T05:12:41;101337.28;;;25.96;42.61
75936;BME280;64614;32.062;34.834;2023-11-21T05:15:08;101342.78;;;25.96;42.75
75936;BME280;64614;32.062;34.834;2023-11-21T05:22:46;101350.72;;;25.97;42.88
75936;BME280;64614;32.062;34.834;2023-11-21T05:30:25;101334.88;;;25.94;42.99
75936;BME280;64614;32.062;34.834;2023-11-21T05:32:51;101349.09;;;25.96;42.71
75936;BME280;64614;32.062;34.834;2023-11-21T05:40:24;101366.63;;;26.01;42.92
75936;BME280;64614;32.062;34.834;2023-11-21T05:45:28;101367.91;;;26.03;42.65
75936;BME280;64614;32.062;34.834;2023-11-21T05:47:55;101358.84;;;26.03;43.08
75936;BME280;64614;32.062;34.834;2023-11-21T05:50:23;101349.25;;;25.91;42.92
75936;BME280;64614;32.062;34.834;2023-11-21T05:55:23;101375.59;;;26.15;42.56
75936;BME280;64614;32.062;34.834;2023-11-21T05:57:51;101385.13;;;26.09;42.93
75936;BME280;64614;32.062;34.834;2023-11-21T06:00:17;101388.19;;;26.07;42.77
75936;BME280;64614;32.062;34.834;2023-11-21T06:02:50;101383.47;;;26.08;43.03
75936;BME280;64614;32.062;34.834;2023-11-21T06:10:16;101381.41;;;26.14;43.03
75936;BME280;64614;32.062;34.834;2023-11-21T06:12:44;101383.38;;;26.13;42.75
75936;BME280;64614;32.062;34.834;2023-11-21T06:15:17;101391.63;;;26.13;42.87
75936;BME280;64614;32.062;34.834;2023-11-21T06:17:51;101380.88;;;26.03;42.68
75936;BME280;64614;32.062;34.834;2023-11-21T06:20:20;101390.81;;;26.12;42.79
75936;BME280;64614;32.062;34.834;2023-11-21T06:22:49;101402.31;;;26.15;42.82
75936;BME280;64614;32.062;34.834;2023-11-21T06:25:15;101396.47;;;26.16;42.72
75936;BME280;64614;32.062;34.834;2023-11-21T06:27:46;101398.25;;;26.12;42.78
75936;BME280;64614;32.062;34.834;2023-11-21T06:30:15;101377.00;;;26.04;42.58
75936;BME280;64614;32.062;34.834;2023-11-21T06:32:41;101401.72;;;26.26;42.61
75936;BME280;64614;32.062;34.834;2023-11-21T06:35:08;101414.81;;;26.21;42.58
75936;BME280;64614;32.062;34.834;2023-11-21T06:37:35;101404.13;;;26.19;42.80
75936;BME280;64614;32.062;34.834;2023-11-21T06:40:02;101419.69;;;26.24;42.82
75936;BME280;64614;32.062;34.834;2023-11-21T06:42:29;101422.09;;;26.25;42.97
75936;BME280;64614;32.062;34.834;2023-11-21T06:44:57;101407.53;;;26.25;42.93
75936;BME280;64614;32.062;34.834;2023-11-21T06:50:43;101415.31;;;26.32;42.81
75936;BME280;64614;32.062;34.834;2023-11-21T06:58:48;101422.81;;;26.40;42.87
75936;BME280;64614;32.062;34.834;2023-11-21T07:01:14;101420.38;;;26.38;42.80
75936;BME280;64614;32.062;34.834;2023-11-21T07:03:41;101432.38;;;26.42;42.69
75936;BME280;64614;32.062;34.834;2023-11-21T07:06:09;101427.66;;;26.43;43.15
75936;BME280;64614;32.062;34.834;2023-11-21T07:08:35;101432.88;;;26.45;42.76
75936;BME280;64614;32.062;34.834;2023-11-21T07:11:01;101439.50;;;26.43;42.71
75936;BME280;64614;32.062;34.834;2023-11-21T07:13:28;101431.25;;;26.43;43.15
75936;BME280;64614;32.062;34.834;2023-11-21T07:15:56;101440.31;;;26.44;43.22
75936;BME280;64614;32.062;34.834;2023-11-21T07:26:08;101443.06;;;26.44;42.99
75936;BME280;64614;32.062;34.834;2023-11-21T07:31:17;101439.19;;;26.45;42.93
75936;BME280;64614;32.062;34.834;2023-11-21T07:33:43;101447.44;;;26.45;42.53
75936;BME280;64614;32.062;34.834;2023-11-21T07:36:08;101434.81;;;26.44;42.61
75936;BME280;64614;32.062;34.834;2023-11-21T07:43:42;101436.44;;;26.45;42.57
75936;BME280;64614;32.062;34.834;2023-11-21T07:46:09;101440.31;;;26.44;42.67
75936;BME280;64614;32.062;34.834;2023-11-21T07:48:36;101449.06;;;26.46;42.63
75936;BME280;64614;32.062;34.834;2023-11-21T07:51:02;101439.69;;;26.47;42.97
75936;BME280;64614;32.062;34.834;2023-11-21T07:56:08;101447.94;;;26.47;42.98
75936;BME280;64614;32.062;34.834;2023-11-21T07:58:36;101438.06;;;26.46;42.98
75936;BME280;64614;32.062;34.834;2023-11-21T08:04:08;101413.56;;;26.36;43.03
75936;BME280;64614;32.062;34.834;2023-11-21T08:06:33;101425.59;;;26.49;42.51
75936;BME280;64614;32.062;34.834;2023-11-21T08:14:39;101425.25;;;26.50;42.88
75936;BME280;64614;32.062;34.834;2023-11-21T08:17:07;101422.50;;;26.50;42.90
75936;BME280;64614;32.062;34.834;2023-11-21T08:19:38;101412.31;;;26.51;43.11
75936;BME280;64614;32.062;34.834;2023-11-21T08:22:04;101411.47;;;26.50;42.90
75936;BME280;64614;32.062;34.834;2023-11-21T08:24:30;101409.56;;;26.51;42.80
75936;BME280;64614;32.062;34.834;2023-11-21T08:29:31;101401.78;;;26.53;42.86
75936;BME280;64614;32.062;34.834;2023-11-21T08:31:57;101399.84;;;26.53;42.95
75936;BME280;64614;32.062;34.834;2023-11-21T08:34:23;101397.56;;;26.55;42.79
75936;BME280;64614;32.062;34.834;2023-11-21T08:36:50;101403.09;;;26.55;42.51
75936;BME280;64614;32.062;34.834;2023-11-21T08:39:16;101399.19;;;26.56;42.70
75936;BME280;64614;32.062;34.834;2023-11-21T08:41:44;101403.09;;;26.55;42.69
75936;BME280;64614;32.062;34.834;2023-11-21T08:44:36;101395.78;;;26.59;43.06
75936;BME280;64614;32.062;34.834;2023-11-21T08:47:02;101396.91;;;26.58;42.93
75936;BME280;64614;32.062;34.834;2023-11-21T08:49:28;101388.19;;;26.56;42.98
75936;BME280;64614;32.062;34.834;2023-11-21T08:51:55;101387.50;;;26.59;42.68
75936;BME280;64614;32.062;34.834;2023-11-21T08:57:14;101388.84;;;26.62;42.87
75936;BME280;64614;32.062;34.834;2023-11-21T09:00:16;101365.97;;;26.53;43.12
75936;BME280;64614;32.062;34.834;2023-11-21T09:03:03;101383.00;;;26.64;42.65
75936;BME280;64614;32.062;34.834;2023-11-21T09:05:34;101375.53;;;26.64;43.10
75936;BME280;64614;32.062;34.834;2023-11-21T09:15:43;101380.75;;;26.66;42.92
75936;BME280;64614;32.062;34.834;2023-11-21T09:18:14;101370.19;;;26.68;43.15
75936;BME280;64614;32.062;34.834;2023-11-21T09:20:42;101368.25;;;26.68;42.57
75936;BME280;64614;32.062;34.834;2023-11-21T09:23:09;101367.13;;;26.69;42.71
75936;BME280;64614;32.062;34.834;2023-11-21T09:25:37;101371.50;;;26.70;42.82
75936;BME280;64614;32.062;34.834;2023-11-21T09:30:45;101368.41;;;26.72;42.49
75936;BME280;64614;32.062;34.834;2023-11-21T09:35:43;101360.16;;;26.72;42.61
75936;BME280;64614;32.062;34.834;2023-11-21T09:38:36;101328.72;;;26.55;43.11
75936;BME280;64614;32.062;34.834;2023-11-21T09:41:05;101354.31;;;26.73;42.95
75936;BME280;64614;32.062;34.834;2023-11-21T09:43:34;101350.41;;;26.74;42.51
75936;BME280;64614;32.062;34.834;2023-11-21T09:46:01;101349.94;;;26.72;42.86
75936;BME280;64614;32.062;34.834;2023-11-21T09:48:29;101334.53;;;26.63;42.68
75936;BME280;64614;32.062;34.834;2023-11-21T09:50:57;101351.25;;;26.75;42.99
75936;BME280;64614;32.062;34.834;2023-11-21T09:53:24;101355.13;;;26.74;42.84
75936;BME280;64614;32.062;34.834;2023-11-21T09:58:21;101346.53;;;26.75;43.06
75936;BME280;64614;32.062;34.834;2023-11-21T10:00:54;101343.28;;;26.73;42.63
75936;BME280;64614;32.062;34.834;2023-11-21T10:03:21;101347.06;;;26.78;42.59
75936;BME280;64614;32.062;34.834;2023-11-21T10:05:49;101339.94;;;26.77;42.79
75936;BME280;64614;32.062;34.834;2023-11-21T10:08:15;101326.94;;;26.77;43.05
75936;BME280;64614;32.062;34.834;2023-11-21T10:10:45;101328.56;;;26.78;42.94
75936;BME280;64614;32.062;34.834;2023-11-21T10:13:20;101330.19;;;26.79;42.96
75936;BME280;64614;32.062;34.834;2023-11-21T10:15:51;101326.63;;;26.79;43.01
75936;BME280;64614;32.062;34.834;2023-11-21T10:18:17;101318.03;;;26.80;42.91
75936;BME280;64614;32.062;34.834;2023-11-21T10:20:48;101318.03;;;26.80;42.61
75936;BME280;64614;32.062;34.834;2023-11-21T10:23:22;101316.09;;;26.81;42.55
75936;BME280;64614;32.062;34.834;2023-11-21T10:25:48;101320.78;;;26.80;42.67
75936;BME280;64614;32.062;34.834;2023-11-21T10:28:18;101316.09;;;26.81;42.56
75936;BME280;64614;32.062;34.834;2023-11-21T10:30:45;101308.63;;;26.81;42.49
75936;BME280;64614;32.062;34.834;2023-11-21T10:33:11;101296.50;;;26.82;42.52
75936;BME280;64614;32.062;34.834;2023-11-21T10:35:47;101292.59;;;26.83;42.79
75936;BME280;64614;32.062;34.834;2023-11-21T10:38:17;101293.72;;;26.82;42.46
75936;BME280;64614;32.062;34.834;2023-11-21T10:40:44;101292.25;;;26.85;42.60
75936;BME280;64614;32.062;34.834;2023-11-21T10:43:13;101288.69;;;26.84;42.77
75936;BME280;64614;32.062;34.834;2023-11-21T10:45:41;101291.28;;;26.89;42.78
75936;BME280;64614;32.062;34.834;2023-11-21T10:48:13;101284.63;;;26.90;42.87
75936;BME280;64614;32.062;34.834;2023-11-21T10:50:48;101291.78;;;26.92;42.56
75936;BME280;64614;32.062;34.834;2023-11-21T10:58:24;101278.31;;;26.90;42.60
75936;BME280;64614;32.062;34.834;2023-11-21T11:00:50;101276.03;;;26.92;42.77
75936;BME280;64614;32.062;34.834;2023-11-21T11:03:17;101268.59;;;26.93;42.28
75936;BME280;64614;32.062;34.834;2023-11-21T11:05:44;101270.19;;;26.94;42.13
75936;BME280;64614;32.062;34.834;2023-11-21T11:08:18;101272.94;;;26.94;42.62
75936;BME280;64614;32.062;34.834;2023-11-21T11:10:46;101265.50;;;26.94;42.26
75936;BME280;64614;32.062;34.834;2023-11-21T11:15:48;101270.19;;;26.94;42.35
75936;BME280;64614;32.062;34.834;2023-11-21T11:18:15;101276.19;;;26.96;42.68
75936;BME280;64614;32.062;34.834;2023-11-21T11:20:43;101267.91;;;26.96;42.34
75936;BME280;64614;32.062;34.834;2023-11-21T11:23:30;101266.78;;;26.97;42.82
75936;BME280;64614;32.062;34.834;2023-11-21T11:34:20;101255.91;;;27.00;42.61
75936;BME280;64614;32.062;34.834;2023-11-21T11:37:04;101262.91;;;26.98;42.74
75936;BME280;64614;32.062;34.834;2023-11-21T11:39:41;101259.00;;;26.99;42.05
75936;BME280;64614;32.062;34.834;2023-11-21T11:42:16;101272.13;;;27.02;42.67
75936;BME280;64614;32.062;34.834;2023-11-21T11:47:29;101277.63;;;27.02;42.63
75936;BME280;64614;32.062;34.834;2023-11-21T11:50:11;101282.34;;;27.01;42.21
75936;BME280;64614;32.062;34.834;2023-11-21T11:52:55;101267.13;;;26.95;42.75
75936;BME280;64614;32.062;34.834;2023-11-21T11:55:36;101280.38;;;27.02;42.07
75936;BME280;64614;32.062;34.834;2023-11-21T11:58:06;101277.63;;;27.02;42.61
75936;BME280;64614;32.062;34.834;2023-11-21T12:03:00;101274.41;;;27.00;42.42
75936;BME280;64614;32.062;34.834;2023-11-21T12:05:31;101275.69;;;27.02;42.23
75936;BME280;64614;32.062;34.834;2023-11-21T12:08:01;101278.44;;;27.02;42.08
75936;BME280;64614;32.062;34.834;2023-11-21T12:10:31;101271.91;;;27.25;41.78
75936;BME280;64614;32.062;34.834;2023-11-21T12:13:08;101273.53;;;27.17;42.31
75936;BME280;64614;32.062;34.834;2023-11-21T12:15:55;101280.22;;;27.07;42.46
75936;BME280;64614;32.062;34.834;2023-11-21T12:18:22;101276.97;;;27.05;42.21
75936;BME280;64614;32.062;34.834;2023-11-21T12:20:48;101279.25;;;27.03;42.06
75936;BME280;64614;32.062;34.834;2023-11-21T12:23:16;101281.69;;;27.04;42.50
75936;BME280;64614;32.062;34.834;2023-11-21T12:25:42;101274.88;;;27.02;42.15
75936;BME280;64614;32.062;34.834;2023-11-21T12:28:09;101291.91;;;27.04;42.47
75936;BME280;64614;32.062;34.834;2023-11-21T12:30:36;101290.28;;;27.03;42.01
75936;BME280;64614;32.062;34.834;2023-11-21T12:33:03;101286.38;;;27.04;42.50
75936;BME280;64614;32.062;34.834;2023-11-21T12:35:33;101284.13;;;27.06;42.10
75936;BME280;64614;32.062;34.834;2023-11-21T12:38:09;101283.31;;;27.05;42.29
75936;BME280;64614;32.062;34.834;2023-11-21T12:40:35;101285.75;;;27.07;42.24
75936;BME280;64614;32.062;34.834;2023-11-21T12:43:03;101286.53;;;27.08;42.00
75936;BME280;64614;32.062;34.834;2023-11-21T12:45:29;101281.03;;;27.08;42.01
75936;BME280;64614;32.062;34.834;2023-11-21T12:50:56;101282.50;;;27.05;41.87
75936;BME280;64614;32.062;34.834;2023-11-21T12:53:26;101283.78;;;27.08;42.27
75936;BME280;64614;32.062;34.834;2023-11-21T12:56:01;101297.91;;;27.06;42.47
75936;BME280;64614;32.062;34.834;2023-11-21T12:58:28;101292.06;;;27.08;42.28
75936;BME280;64614;32.062;34.834;2023-11-21T13:00:58;101296.78;;;27.07;42.16
75936;BME280;64614;32.062;34.834;2023-11-21T13:03:30;101285.91;;;27.11;42.19
75936;BME280;64614;32.062;34.834;2023-11-21T13:05:56;101285.09;;;27.10;42.30
75936;BME280;64614;32.062;34.834;2023-11-21T13:08:28;101293.38;;;27.10;42.06
75936;BME280;64614;32.062;34.834;2023-11-21T13:10:56;101293.69;;;27.09;42.56
75936;BME280;64614;32.062;34.834;2023-11-21T13:13:28;101298.06;;;27.10;42.41
75936;BME280;64614;32.062;34.834;2023-11-21T13:18:22;101302.44;;;27.11;41.96
75936;BME280;64614;32.062;34.834;2023-11-21T13:20:49;101303.22;;;27.11;42.24
75936;BME280;64614;32.062;34.834;2023-11-21T13:23:16;101299.34;;;27.12;42.36
75936;BME280;64614;32.062;34.834;2023-11-21T13:25:43;101302.44;;;27.11;42.30
75936;BME280;64614;32.062;34.834;2023-11-21T13:28:11;101296.56;;;27.21;41.79
75936;BME280;64614;32.062;34.834;2023-11-21T13:30:37;101310.84;;;27.14;41.92
75936;BME280;64614;32.062;34.834;2023-11-21T13:33:06;101311.50;;;27.11;42.21
75936;BME280;64614;32.062;34.834;2023-11-21T13:35:37;101316.72;;;27.13;41.83
75936;BME280;64614;32.062;34.834;2023-11-21T13:38:15;101310.38;;;27.12;42.45
75936;BME280;64614;32.062;34.834;2023-11-21T13:40:52;101309.91;;;27.10;42.29
75936;BME280;64614;32.062;34.834;2023-11-21T13:43:31;101313.47;;;27.11;42.33
75936;BME280;64614;32.062;34.834;2023-11-21T13:45:57;101312.00;;;27.13;42.28
75936;BME280;64614;32.062;34.834;2023-11-21T13:48:30;101329.34;;;27.14;41.90
75936;BME280;64614;32.062;34.834;2023-11-21T13:51:14;101314.25;;;27.11;42.31
75936;BME280;64614;32.062;34.834;2023-11-21T13:53:47;101321.72;;;27.11;41.93
75936;BME280;64614;32.062;34.834;2023-11-21T13:56:17;101326.91;;;27.12;42.16
75936;BME280;64614;32.062;34.834;2023-11-21T13:58:49;101334.38;;;27.12;41.95
75936;BME280;64614;32.062;34.834;2023-11-21T14:01:19;101332.44;;;27.21;42.18
75936;BME280;64614;32.062;34.834;2023-11-21T14:04:00;101342.31;;;27.13;42.30
75936;BME280;64614;32.062;34.834;2023-11-21T14:06:47;101336.66;;;27.10;42.31
75936;BME280;64614;32.062;34.834;2023-11-21T14:09:16;101339.06;;;27.11;42.24
75936;BME280;64614;32.062;34.834;2023-11-21T14:11:58;101341.53;;;27.13;41.77
75936;BME280;64614;32.062;34.834;2023-11-21T14:14:27;101348.16;;;27.12;41.61
75936;BME280;64614;32.062;34.834;2023-11-21T14:16:58;101348.97;;;27.12;42.21
75936;BME280;64614;32.062;34.834;2023-11-21T14:19:32;101358.38;;;27.11;42.25
75936;BME280;64614;32.062;34.834;2023-11-21T14:22:00;101358.22;;;27.08;42.01
75936;BME280;64614;32.062;34.834;2023-11-21T14:24:26;101364.88;;;27.06;41.58
75936;BME280;64614;32.062;34.834;2023-11-21T14:26:51;101362.94;;;27.07;41.85
75936;BME280;64614;32.062;34.834;2023-11-21T14:29:19;101367.63;;;27.06;42.03
75936;BME280;64614;32.062;34.834;2023-11-21T14:31:49;101370.06;;;27.08;41.75
75936;BME280;64614;32.062;34.834;2023-11-21T14:34:16;101367.31;;;27.08;41.57
75936;BME280;64614;32.062;34.834;2023-11-21T14:36:42;101366.81;;;27.06;41.98
75936;BME280;64614;32.062;34.834;2023-11-21T14:39:10;101365.19;;;27.05;41.72
75936;BME280;64614;32.062;34.834;2023-11-21T14:41:50;101372.34;;;27.06;41.64
75936;BME280;64614;32.062;34.834;2023-11-21T14:46:44;101373.81;;;27.03;41.91
75936;BME280;64614;32.062;34.834;2023-11-21T14:49:12;101380.59;;;27.06;41.52
75936;BME280;64614;32.062;34.834;2023-11-21T14:51:51;101380.59;;;27.06;41.53
75936;BME280;64614;32.062;34.834;2023-11-21T14:54:31;101390.00;;;27.05;41.65
75936;BME280;64614;32.062;34.834;2023-11-21T14:57:08;101391.97;;;27.04;41.32
75936;BME280;64614;32.062;34.834;2023-11-21T14:59:37;101390.19;;;27.00;41.91
75936;BME280;64614;32.062;34.834;2023-11-21T15:02:06;101390.34;;;27.03;41.70
75936;BME280;64614;32.062;34.834;2023-11-21T15:04:44;101391.47;;;27.02;41.24